Westboro, Missouri
Current Conditions -  °F | °C
As of 12:35 PM on Sunday 23 Nov 2014 (Local Time) from KSDA Reporting Station
Haze Haze  
Wind Chill: 41°   Ceiling: 800
Heat Index: 48°   Visibility: 0.75mi
Dew Point: 48°   Wind: 21mph
Humidity: 100%   Direction: 340°NNW
Pressure: 29.42"   Gusts: 31mph
Location:  40.53°N, 95.32°W
Report Text: KSDA 231835Z AUTO 34018G27KT 3/4SM BR BKN008 OVC012 09/09 A2942 RMK AO2
Loading
Personal Weather Stations






























Interactive Weather Map New forecast layout! Learn more

10-Day Weather Forecast

Advertisements
Track Severe Weather on mobile